sensor_id;sensor_type;location;lat;lon;timestamp;temperature;humidity
15386;DHT22;7791;47.246;9.648;2023-08-17T00:02:14;19.70;99.90
15386;DHT22;7791;47.246;9.648;2023-08-17T00:05:06;19.70;99.90
15386;DHT22;7791;47.246;9.648;2023-08-17T00:08:20;19.70;99.90
15386;DHT22;7791;47.246;9.648;2023-08-17T00:11:11;19.60;99.90
15386;DHT22;7791;47.246;9.648;2023-08-17T00:19:49;19.40;99.90
15386;DHT22;7791;47.246;9.648;2023-08-17T00:22:29;19.30;99.90
15386;DHT22;7791;47.246;9.648;2023-08-17T00:31:16;19.50;99.90
15386;DHT22;7791;47.246;9.648;2023-08-17T00:33:53;19.60;99.90
15386;DHT22;7791;47.246;9.648;2023-08-17T00:36:45;19.60;99.90
15386;DHT22;7791;47.246;9.648;2023-08-17T00:39:53;19.60;99.90
15386;DHT22;7791;47.246;9.648;2023-08-17T00:42:32;19.60;99.90
15386;DHT22;7791;47.246;9.648;2023-08-17T00:45:07;19.60;99.90
15386;DHT22;7791;47.246;9.648;2023-08-17T00:47:47;19.40;99.90
15386;DHT22;7791;47.246;9.648;2023-08-17T00:50:30;19.40;99.90
15386;DHT22;7791;47.246;9.648;2023-08-17T00:56:05;19.20;99.90
15386;DHT22;7791;47.246;9.648;2023-08-17T00:58:45;19.10;99.90
15386;DHT22;7791;47.246;9.648;2023-08-17T01:01:43;19.10;99.90
15386;DHT22;7791;47.246;9.648;2023-08-17T01:04:28;19.00;99.90
15386;DHT22;7791;47.246;9.648;2023-08-17T01:07:12;18.90;99.90
15386;DHT22;7791;47.246;9.648;2023-08-17T01:09:47;18.80;99.90
15386;DHT22;7791;47.246;9.648;2023-08-17T01:18:36;18.40;99.90
15386;DHT22;7791;47.246;9.648;2023-08-17T01:21:34;18.30;99.90
15386;DHT22;7791;47.246;9.648;2023-08-17T01:27:24;18.10;99.90
15386;DHT22;7791;47.246;9.648;2023-08-17T01:30:15;17.80;99.90
15386;DHT22;7791;47.246;9.648;2023-08-17T01:32:56;17.70;99.90
15386;DHT22;7791;47.246;9.648;2023-08-17T01:38:38;17.40;99.90
15386;DHT22;7791;47.246;9.648;2023-08-17T01:41:45;17.40;99.90
15386;DHT22;7791;47.246;9.648;2023-08-17T01:47:30;17.30;99.90
15386;DHT22;7791;47.246;9.648;2023-08-17T01:50:23;17.20;99.90
15386;DHT22;7791;47.246;9.648;2023-08-17T01:56:25;17.00;99.90
15386;DHT22;7791;47.246;9.648;2023-08-17T01:59:05;17.00;99.90
15386;DHT22;7791;47.246;9.648;2023-08-17T02:01:44;17.00;99.90
15386;DHT22;7791;47.246;9.648;2023-08-17T02:04:41;17.00;99.90
15386;DHT22;7791;47.246;9.648;2023-08-17T02:07:47;16.90;99.90
15386;DHT22;7791;47.246;9.648;2023-08-17T02:13:34;16.70;99.90
15386;DHT22;7791;47.246;9.648;2023-08-17T02:16:12;16.70;99.90
15386;DHT22;7791;47.246;9.648;2023-08-17T02:18:51;16.60;99.90
15386;DHT22;7791;47.246;9.648;2023-08-17T02:30:12;16.60;99.90
15386;DHT22;7791;47.246;9.648;2023-08-17T02:32:50;16.60;99.90
15386;DHT22;7791;47.246;9.648;2023-08-17T02:35:39;16.70;99.90
15386;DHT22;7791;47.246;9.648;2023-08-17T02:38:30;16.60;99.90
15386;DHT22;7791;47.246;9.648;2023-08-17T02:41:39;16.50;99.90
15386;DHT22;7791;47.246;9.648;2023-08-17T02:44:15;16.50;99.90
15386;DHT22;7791;47.246;9.648;2023-08-17T02:47:01;16.50;99.90
15386;DHT22;7791;47.246;9.648;2023-08-17T02:49:37;16.50;99.90
15386;DHT22;7791;47.246;9.648;2023-08-17T02:52:15;16.50;99.90
15386;DHT22;7791;47.246;9.648;2023-08-17T02:58:03;16.60;99.90
15386;DHT22;7791;47.246;9.648;2023-08-17T03:00:43;16.70;99.90
15386;DHT22;7791;47.246;9.648;2023-08-17T03:03:21;16.80;99.90
15386;DHT22;7791;47.246;9.648;2023-08-17T03:05:55;16.90;99.90
15386;DHT22;7791;47.246;9.648;2023-08-17T03:08:49;16.90;99.90
15386;DHT22;7791;47.246;9.648;2023-08-17T03:11:41;16.90;99.90
15386;DHT22;7791;47.246;9.648;2023-08-17T03:17:19;16.80;99.90
15386;DHT22;7791;47.246;9.648;2023-08-17T03:22:41;16.70;99.90
15386;DHT22;7791;47.246;9.648;2023-08-17T03:28:20;16.50;99.90
15386;DHT22;7791;47.246;9.648;2023-08-17T03:31:03;16.40;99.90
15386;DHT22;7791;47.246;9.648;2023-08-17T03:33:43;16.10;99.90
15386;DHT22;7791;47.246;9.648;2023-08-17T03:36:35;16.00;99.90
15386;DHT22;7791;47.246;9.648;2023-08-17T03:39:16;15.90;99.90
15386;DHT22;7791;47.246;9.648;2023-08-17T03:42:01;16.00;99.90
15386;DHT22;7791;47.246;9.648;2023-08-17T03:50:45;16.20;99.90
15386;DHT22;7791;47.246;9.648;2023-08-17T03:53:17;16.40;99.90
15386;DHT22;7791;47.246;9.648;2023-08-17T03:55:51;16.40;99.90
15386;DHT22;7791;47.246;9.648;2023-08-17T03:58:29;16.50;99.90
15386;DHT22;7791;47.246;9.648;2023-08-17T04:01:21;16.60;99.90
15386;DHT22;7791;47.246;9.648;2023-08-17T04:03:56;16.60;99.90
15386;DHT22;7791;47.246;9.648;2023-08-17T04:09:54;16.50;99.90
15386;DHT22;7791;47.246;9.648;2023-08-17T04:12:30;16.40;99.90
15386;DHT22;7791;47.246;9.648;2023-08-17T04:15:13;16.30;99.90
15386;DHT22;7791;47.246;9.648;2023-08-17T04:17:54;16.30;99.90
15386;DHT22;7791;47.246;9.648;2023-08-17T04:20:30;16.30;99.90
15386;DHT22;7791;47.246;9.648;2023-08-17T04:23:18;16.40;99.90
15386;DHT22;7791;47.246;9.648;2023-08-17T04:25:54;16.50;99.90
15386;DHT22;7791;47.246;9.648;2023-08-17T04:28:41;16.60;99.90
15386;DHT22;7791;47.246;9.648;2023-08-17T04:31:17;16.60;99.90
15386;DHT22;7791;47.246;9.648;2023-08-17T04:34:08;16.70;99.90
15386;DHT22;7791;47.246;9.648;2023-08-17T04:36:48;16.70;99.90
15386;DHT22;7791;47.246;9.648;2023-08-17T04:39:32;16.70;99.90
15386;DHT22;7791;47.246;9.648;2023-08-17T04:42:11;16.70;99.90
15386;DHT22;7791;47.246;9.648;2023-08-17T04:44:51;16.60;99.90
15386;DHT22;7791;47.246;9.648;2023-08-17T04:47:29;16.60;99.90
15386;DHT22;7791;47.246;9.648;2023-08-17T04:50:04;16.70;99.90
15386;DHT22;7791;47.246;9.648;2023-08-17T04:52:58;16.70;99.90
15386;DHT22;7791;47.246;9.648;2023-08-17T04:55:53;16.70;99.90
15386;DHT22;7791;47.246;9.648;2023-08-17T04:58:32;16.80;99.90
15386;DHT22;7791;47.246;9.648;2023-08-17T05:01:10;16.90;99.90
15386;DHT22;7791;47.246;9.648;2023-08-17T05:03:44;17.10;99.90
15386;DHT22;7791;47.246;9.648;2023-08-17T05:06:24;17.00;99.90
15386;DHT22;7791;47.246;9.648;2023-08-17T05:11:50;17.10;99.90
15386;DHT22;7791;47.246;9.648;2023-08-17T05:14:22;17.30;99.90
15386;DHT22;7791;47.246;9.648;2023-08-17T05:17:00;17.40;99.90
15386;DHT22;7791;47.246;9.648;2023-08-17T05:20:10;17.30;99.90
15386;DHT22;7791;47.246;9.648;2023-08-17T05:22:45;17.40;99.90
15386;DHT22;7791;47.246;9.648;2023-08-17T05:28:01;18.00;99.90
15386;DHT22;7791;47.246;9.648;2023-08-17T05:31:02;18.30;99.90
15386;DHT22;7791;47.246;9.648;2023-08-17T05:33:37;18.60;99.90
15386;DHT22;7791;47.246;9.648;2023-08-17T05:36:22;19.00;99.90
15386;DHT22;7791;47.246;9.648;2023-08-17T05:39:07;19.20;99.90
15386;DHT22;7791;47.246;9.648;2023-08-17T05:41:45;19.50;99.90
15386;DHT22;7791;47.246;9.648;2023-08-17T05:44:30;19.80;99.90
15386;DHT22;7791;47.246;9.648;2023-08-17T05:47:02;19.70;99.90
15386;DHT22;7791;47.246;9.648;2023-08-17T05:49:47;19.70;99.90
15386;DHT22;7791;47.246;9.648;2023-08-17T05:52:30;19.90;99.90
15386;DHT22;7791;47.246;9.648;2023-08-17T05:55:16;20.10;99.90
15386;DHT22;7791;47.246;9.648;2023-08-17T06:00:42;20.50;99.90
15386;DHT22;7791;47.246;9.648;2023-08-17T06:03:27;20.60;99.90
15386;DHT22;7791;47.246;9.648;2023-08-17T06:06:06;20.70;99.90
15386;DHT22;7791;47.246;9.648;2023-08-17T06:08:51;20.70;99.90
15386;DHT22;7791;47.246;9.648;2023-08-17T06:11:39;21.50;99.90
15386;DHT22;7791;47.246;9.648;2023-08-17T06:14:12;22.80;99.90
15386;DHT22;7791;47.246;9.648;2023-08-17T06:16:56;23.70;99.90
15386;DHT22;7791;47.246;9.648;2023-08-17T06:19:31;24.80;99.90
15386;DHT22;7791;47.246;9.648;2023-08-17T06:22:18;26.40;99.90
15386;DHT22;7791;47.246;9.648;2023-08-17T06:25:05;27.40;99.90
15386;DHT22;7791;47.246;9.648;2023-08-17T06:27:36;28.20;99.90
15386;DHT22;7791;47.246;9.648;2023-08-17T06:30:12;29.10;99.90
15386;DHT22;7791;47.246;9.648;2023-08-17T06:32:54;29.90;99.80
15386;DHT22;7791;47.246;9.648;2023-08-17T06:35:35;30.60;99.00
15386;DHT22;7791;47.246;9.648;2023-08-17T06:41:31;31.60;96.70
15386;DHT22;7791;47.246;9.648;2023-08-17T06:44:27;32.20;94.80
15386;DHT22;7791;47.246;9.648;2023-08-17T06:47:03;33.00;93.20
15386;DHT22;7791;47.246;9.648;2023-08-17T06:49:46;33.20;92.90
15386;DHT22;7791;47.246;9.648;2023-08-17T06:52:21;33.50;92.10
15386;DHT22;7791;47.246;9.648;2023-08-17T06:54:56;33.80;91.80
15386;DHT22;7791;47.246;9.648;2023-08-17T06:57:31;32.80;92.60
15386;DHT22;7791;47.246;9.648;2023-08-17T07:03:34;31.70;92.10
15386;DHT22;7791;47.246;9.648;2023-08-17T07:06:17;32.20;92.60
15386;DHT22;7791;47.246;9.648;2023-08-17T07:11:43;32.30;92.30
15386;DHT22;7791;47.246;9.648;2023-08-17T07:14:48;32.60;92.00
15386;DHT22;7791;47.246;9.648;2023-08-17T07:17:27;33.10;91.20
15386;DHT22;7791;47.246;9.648;2023-08-17T07:20:18;33.60;90.80
15386;DHT22;7791;47.246;9.648;2023-08-17T07:22:53;34.20;90.50
15386;DHT22;7791;47.246;9.648;2023-08-17T07:25:43;34.40;89.20
15386;DHT22;7791;47.246;9.648;2023-08-17T07:28:13;34.80;89.60
15386;DHT22;7791;47.246;9.648;2023-08-17T07:31:07;35.10;87.10
15386;DHT22;7791;47.246;9.648;2023-08-17T07:33:39;34.90;88.10
15386;DHT22;7791;47.246;9.648;2023-08-17T07:36:32;34.40;87.60
15386;DHT22;7791;47.246;9.648;2023-08-17T07:39:17;33.90;88.10
15386;DHT22;7791;47.246;9.648;2023-08-17T07:41:53;33.70;88.60
15386;DHT22;7791;47.246;9.648;2023-08-17T07:44:54;33.40;88.10
15386;DHT22;7791;47.246;9.648;2023-08-17T07:47:29;32.90;89.70
15386;DHT22;7791;47.246;9.648;2023-08-17T07:50:08;32.80;90.80
15386;DHT22;7791;47.246;9.648;2023-08-17T07:55:54;32.60;90.90
15386;DHT22;7791;47.246;9.648;2023-08-17T07:58:41;33.20;90.60
15386;DHT22;7791;47.246;9.648;2023-08-17T08:01:28;34.20;87.90
15386;DHT22;7791;47.246;9.648;2023-08-17T08:04:15;35.00;86.80
15386;DHT22;7791;47.246;9.648;2023-08-17T08:06:48;35.60;82.30
15386;DHT22;7791;47.246;9.648;2023-08-17T08:12:31;35.90;81.60
15386;DHT22;7791;47.246;9.648;2023-08-17T08:15:03;36.10;80.70
15386;DHT22;7791;47.246;9.648;2023-08-17T08:17:59;35.50;83.10
15386;DHT22;7791;47.246;9.648;2023-08-17T08:23:44;35.90;82.00
15386;DHT22;7791;47.246;9.648;2023-08-17T08:26:29;36.90;77.50
15386;DHT22;7791;47.246;9.648;2023-08-17T08:29:05;36.70;76.70
15386;DHT22;7791;47.246;9.648;2023-08-17T08:34:39;37.20;77.30
15386;DHT22;7791;47.246;9.648;2023-08-17T08:37:43;37.40;75.20
15386;DHT22;7791;47.246;9.648;2023-08-17T08:43:20;37.60;78.10
15386;DHT22;7791;47.246;9.648;2023-08-17T08:46:00;36.90;73.30
15386;DHT22;7791;47.246;9.648;2023-08-17T08:48:34;35.60;76.30
15386;DHT22;7791;47.246;9.648;2023-08-17T08:51:17;35.00;79.40
15386;DHT22;7791;47.246;9.648;2023-08-17T08:54:13;34.30;80.20
15386;DHT22;7791;47.246;9.648;2023-08-17T08:56:59;33.90;82.00
15386;DHT22;7791;47.246;9.648;2023-08-17T08:59:59;33.80;82.00
15386;DHT22;7791;47.246;9.648;2023-08-17T09:02:41;33.90;80.00
15386;DHT22;7791;47.246;9.648;2023-08-17T09:05:27;33.90;78.90
15386;DHT22;7791;47.246;9.648;2023-08-17T09:10:44;33.80;80.40
15386;DHT22;7791;47.246;9.648;2023-08-17T09:16:26;33.80;81.50
15386;DHT22;7791;47.246;9.648;2023-08-17T09:19:12;33.50;79.10
15386;DHT22;7791;47.246;9.648;2023-08-17T09:24:50;33.90;78.00
15386;DHT22;7791;47.246;9.648;2023-08-17T09:27:32;34.20;79.60
15386;DHT22;7791;47.246;9.648;2023-08-17T09:33:01;33.40;80.30
15386;DHT22;7791;47.246;9.648;2023-08-17T09:35:47;33.40;80.50
15386;DHT22;7791;47.246;9.648;2023-08-17T09:38:30;33.30;80.90
15386;DHT22;7791;47.246;9.648;2023-08-17T09:43:58;33.20;76.80
15386;DHT22;7791;47.246;9.648;2023-08-17T09:49:24;33.60;78.30
15386;DHT22;7791;47.246;9.648;2023-08-17T09:51:55;33.40;80.80
15386;DHT22;7791;47.246;9.648;2023-08-17T09:54:36;34.00;79.50
15386;DHT22;7791;47.246;9.648;2023-08-17T09:57:22;34.10;79.40
15386;DHT22;7791;47.246;9.648;2023-08-17T10:00:10;34.40;76.70
15386;DHT22;7791;47.246;9.648;2023-08-17T10:02:55;34.80;77.90
15386;DHT22;7791;47.246;9.648;2023-08-17T10:05:35;34.80;78.20
15386;DHT22;7791;47.246;9.648;2023-08-17T10:08:15;34.30;77.30
15386;DHT22;7791;47.246;9.648;2023-08-17T10:10:56;34.30;78.50
15386;DHT22;7791;47.246;9.648;2023-08-17T10:13:47;34.20;77.30
15386;DHT22;7791;47.246;9.648;2023-08-17T10:16:41;34.00;79.30
15386;DHT22;7791;47.246;9.648;2023-08-17T10:19:21;33.80;82.60
15386;DHT22;7791;47.246;9.648;2023-08-17T10:22:15;34.00;83.00
15386;DHT22;7791;47.246;9.648;2023-08-17T10:25:26;33.20;82.70
15386;DHT22;7791;47.246;9.648;2023-08-17T10:28:03;33.20;85.00
15386;DHT22;7791;47.246;9.648;2023-08-17T10:30:47;32.70;84.50
15386;DHT22;7791;47.246;9.648;2023-08-17T10:33:33;32.60;86.40
15386;DHT22;7791;47.246;9.648;2023-08-17T10:36:08;32.60;85.80
15386;DHT22;7791;47.246;9.648;2023-08-17T10:39:09;33.10;85.90
15386;DHT22;7791;47.246;9.648;2023-08-17T10:41:51;33.40;83.30
15386;DHT22;7791;47.246;9.648;2023-08-17T10:47:41;32.70;86.30
15386;DHT22;7791;47.246;9.648;2023-08-17T10:50:43;31.80;85.30
15386;DHT22;7791;47.246;9.648;2023-08-17T10:53:50;31.40;86.80
15386;DHT22;7791;47.246;9.648;2023-08-17T10:56:55;31.40;88.60
15386;DHT22;7791;47.246;9.648;2023-08-17T10:59:34;32.70;88.30
15386;DHT22;7791;47.246;9.648;2023-08-17T11:02:30;33.70;82.90
15386;DHT22;7791;47.246;9.648;2023-08-17T11:05:11;33.60;83.40
15386;DHT22;7791;47.246;9.648;2023-08-17T11:07:50;33.90;85.60
15386;DHT22;7791;47.246;9.648;2023-08-17T11:10:46;34.00;85.20
15386;DHT22;7791;47.246;9.648;2023-08-17T11:13:23;33.80;83.40
15386;DHT22;7791;47.246;9.648;2023-08-17T11:16:09;34.30;85.00
15386;DHT22;7791;47.246;9.648;2023-08-17T11:18:44;34.70;83.90
15386;DHT22;7791;47.246;9.648;2023-08-17T11:21:16;34.10;84.10
15386;DHT22;7791;47.246;9.648;2023-08-17T11:24:01;34.70;85.10
15386;DHT22;7791;47.246;9.648;2023-08-17T11:26:27;34.60;83.20
15386;DHT22;7791;47.246;9.648;2023-08-17T11:28:53;34.70;81.10
15386;DHT22;7791;47.246;9.648;2023-08-17T11:31:21;34.40;81.00
15386;DHT22;7791;47.246;9.648;2023-08-17T11:33:50;34.70;81.70
15386;DHT22;7791;47.246;9.648;2023-08-17T11:36:16;34.80;82.00
15386;DHT22;7791;47.246;9.648;2023-08-17T11:38:45;34.50;81.00
15386;DHT22;7791;47.246;9.648;2023-08-17T11:41:11;34.00;82.80
15386;DHT22;7791;47.246;9.648;2023-08-17T11:43:37;33.30;83.40
15386;DHT22;7791;47.246;9.648;2023-08-17T11:46:04;33.50;84.30
15386;DHT22;7791;47.246;9.648;2023-08-17T11:48:42;34.10;82.50
15386;DHT22;7791;47.246;9.648;2023-08-17T11:51:08;34.50;82.50
15386;DHT22;7791;47.246;9.648;2023-08-17T11:53:34;34.30;81.70
15386;DHT22;7791;47.246;9.648;2023-08-17T11:56:03;34.10;84.70
15386;DHT22;7791;47.246;9.648;2023-08-17T11:58:45;33.40;88.10
15386;DHT22;7791;47.246;9.648;2023-08-17T12:01:14;33.00;87.30
15386;DHT22;7791;47.246;9.648;2023-08-17T12:04:00;33.00;89.30
15386;DHT22;7791;47.246;9.648;2023-08-17T12:06:26;33.00;88.50
15386;DHT22;7791;47.246;9.648;2023-08-17T12:08:55;32.20;90.40
15386;DHT22;7791;47.246;9.648;2023-08-17T12:11:24;31.40;91.60
15386;DHT22;7791;47.246;9.648;2023-08-17T12:13:50;31.10;92.90
15386;DHT22;7791;47.246;9.648;2023-08-17T12:16:17;31.00;92.00
15386;DHT22;7791;47.246;9.648;2023-08-17T12:18:44;31.00;92.00
15386;DHT22;7791;47.246;9.648;2023-08-17T12:21:13;31.00;92.30
15386;DHT22;7791;47.246;9.648;2023-08-17T12:23:41;30.60;92.70
15386;DHT22;7791;47.246;9.648;2023-08-17T12:26:18;30.60;93.40
15386;DHT22;7791;47.246;9.648;2023-08-17T12:28:44;30.70;93.00
15386;DHT22;7791;47.246;9.648;2023-08-17T12:31:10;30.60;93.40
15386;DHT22;7791;47.246;9.648;2023-08-17T12:33:36;30.40;93.50
15386;DHT22;7791;47.246;9.648;2023-08-17T12:36:01;30.40;93.40
15386;DHT22;7791;47.246;9.648;2023-08-17T12:38:30;30.60;93.70
15386;DHT22;7791;47.246;9.648;2023-08-17T12:41:00;30.20;94.20
15386;DHT22;7791;47.246;9.648;2023-08-17T12:43:26;29.80;94.00
15386;DHT22;7791;47.246;9.648;2023-08-17T12:45:53;29.40;94.80
15386;DHT22;7791;47.246;9.648;2023-08-17T12:48:19;29.10;95.60
15386;DHT22;7791;47.246;9.648;2023-08-17T12:50:45;28.90;96.40
15386;DHT22;7791;47.246;9.648;2023-08-17T12:53:11;28.60;97.90
15386;DHT22;7791;47.246;9.648;2023-08-17T12:55:38;28.90;98.10
15386;DHT22;7791;47.246;9.648;2023-08-17T12:58:04;29.10;97.00
15386;DHT22;7791;47.246;9.648;2023-08-17T13:00:29;29.30;96.80
15386;DHT22;7791;47.246;9.648;2023-08-17T13:02:55;29.40;96.60
15386;DHT22;7791;47.246;9.648;2023-08-17T13:05:21;29.40;96.30
15386;DHT22;7791;47.246;9.648;2023-08-17T13:07:47;29.40;96.80
15386;DHT22;7791;47.246;9.648;2023-08-17T13:10:14;28.90;99.90
15386;DHT22;7791;47.246;9.648;2023-08-17T13:12:43;28.80;99.90
15386;DHT22;7791;47.246;9.648;2023-08-17T13:15:09;28.80;99.90
15386;DHT22;7791;47.246;9.648;2023-08-17T13:17:36;28.50;99.90
15386;DHT22;7791;47.246;9.648;2023-08-17T13:20:02;27.90;99.90
15386;DHT22;7791;47.246;9.648;2023-08-17T13:22:28;27.10;99.90
15386;DHT22;7791;47.246;9.648;2023-08-17T13:24:54;27.10;99.90
15386;DHT22;7791;47.246;9.648;2023-08-17T13:27:20;27.30;99.90
15386;DHT22;7791;47.246;9.648;2023-08-17T13:29:52;27.20;99.90
15386;DHT22;7791;47.246;9.648;2023-08-17T13:32:17;27.20;99.90
15386;DHT22;7791;47.246;9.648;2023-08-17T13:34:44;26.90;99.90
15386;DHT22;7791;47.246;9.648;2023-08-17T13:37:11;26.80;99.90
15386;DHT22;7791;47.246;9.648;2023-08-17T13:39:37;27.00;99.90
15386;DHT22;7791;47.246;9.648;2023-08-17T13:42:03;27.00;99.90
15386;DHT22;7791;47.246;9.648;2023-08-17T13:44:31;27.40;99.90
15386;DHT22;7791;47.246;9.648;2023-08-17T13:46:59;27.60;99.90
15386;DHT22;7791;47.246;9.648;2023-08-17T13:49:26;27.90;99.90
15386;DHT22;7791;47.246;9.648;2023-08-17T13:51:52;28.20;99.90
15386;DHT22;7791;47.246;9.648;2023-08-17T13:54:20;28.50;99.90
15386;DHT22;7791;47.246;9.648;2023-08-17T13:56:50;29.00;99.90
15386;DHT22;7791;47.246;9.648;2023-08-17T13:59:17;29.60;99.90
15386;DHT22;7791;47.246;9.648;2023-08-17T14:01:44;29.80;99.90
15386;DHT22;7791;47.246;9.648;2023-08-17T14:04:35;30.30;99.30
15386;DHT22;7791;47.246;9.648;2023-08-17T14:07:10;30.50;95.50
15386;DHT22;7791;47.246;9.648;2023-08-17T14:09:46;30.50;95.40
15386;DHT22;7791;47.246;9.648;2023-08-17T14:12:11;31.20;94.60
15386;DHT22;7791;47.246;9.648;2023-08-17T14:14:38;32.10;93.70
15386;DHT22;7791;47.246;9.648;2023-08-17T14:17:04;32.40;93.50
15386;DHT22;7791;47.246;9.648;2023-08-17T14:19:37;31.90;94.40
15386;DHT22;7791;47.246;9.648;2023-08-17T14:22:03;31.50;94.10
15386;DHT22;7791;47.246;9.648;2023-08-17T14:24:28;31.10;94.60
15386;DHT22;7791;47.246;9.648;2023-08-17T14:26:54;30.80;94.80
15386;DHT22;7791;47.246;9.648;2023-08-17T14:29:20;30.90;94.50
15386;DHT22;7791;47.246;9.648;2023-08-17T14:31:52;31.00;94.70
15386;DHT22;7791;47.246;9.648;2023-08-17T14:34:18;30.70;94.60
15386;DHT22;7791;47.246;9.648;2023-08-17T14:39:50;30.60;96.40
15386;DHT22;7791;47.246;9.648;2023-08-17T14:42:17;30.30;96.10
15386;DHT22;7791;47.246;9.648;2023-08-17T14:44:45;30.00;96.70
15386;DHT22;7791;47.246;9.648;2023-08-17T14:47:13;30.00;97.70
15386;DHT22;7791;47.246;9.648;2023-08-17T14:49:39;29.30;97.80
15386;DHT22;7791;47.246;9.648;2023-08-17T14:52:12;29.10;99.30
15386;DHT22;7791;47.246;9.648;2023-08-17T14:54:39;29.20;98.80
15386;DHT22;7791;47.246;9.648;2023-08-17T15:00:22;29.40;99.30
15386;DHT22;7791;47.246;9.648;2023-08-17T15:02:49;29.30;99.90
15386;DHT22;7791;47.246;9.648;2023-08-17T15:05:15;29.40;99.40
15386;DHT22;7791;47.246;9.648;2023-08-17T15:07:42;29.50;99.20
15386;DHT22;7791;47.246;9.648;2023-08-17T15:10:08;29.60;99.90
15386;DHT22;7791;47.246;9.648;2023-08-17T15:12:34;29.40;99.90
15386;DHT22;7791;47.246;9.648;2023-08-17T15:15:04;29.10;99.90
15386;DHT22;7791;47.246;9.648;2023-08-17T15:17:41;28.90;99.90
15386;DHT22;7791;47.246;9.648;2023-08-17T15:20:08;28.40;99.90
15386;DHT22;7791;47.246;9.648;2023-08-17T15:22:34;28.20;99.90
15386;DHT22;7791;47.246;9.648;2023-08-17T15:25:18;27.90;99.80
15386;DHT22;7791;47.246;9.648;2023-08-17T15:28:00;27.30;99.90
15386;DHT22;7791;47.246;9.648;2023-08-17T15:30:38;26.90;99.90
15386;DHT22;7791;47.246;9.648;2023-08-17T15:33:29;26.80;99.90
15386;DHT22;7791;47.246;9.648;2023-08-17T15:38:45;26.10;99.90
15386;DHT22;7791;47.246;9.648;2023-08-17T15:41:12;25.60;99.90
15386;DHT22;7791;47.246;9.648;2023-08-17T15:43:38;25.40;99.90
15386;DHT22;7791;47.246;9.648;2023-08-17T15:46:04;25.10;99.90
15386;DHT22;7791;47.246;9.648;2023-08-17T15:51:39;24.40;99.90
15386;DHT22;7791;47.246;9.648;2023-08-17T15:57:19;23.80;99.90
15386;DHT22;7791;47.246;9.648;2023-08-17T15:57:23;23.50;99.90
15386;DHT22;7791;47.246;9.648;2023-08-17T15:59:52;23.20;99.90
15386;DHT22;7791;47.246;9.648;2023-08-17T16:05:11;22.60;99.90
15386;DHT22;7791;47.246;9.648;2023-08-17T16:07:47;22.30;99.90
15386;DHT22;7791;47.246;9.648;2023-08-17T16:10:37;22.00;99.90
15386;DHT22;7791;47.246;9.648;2023-08-17T16:13:22;21.70;99.90
15386;DHT22;7791;47.246;9.648;2023-08-17T16:16:00;21.50;99.90
15386;DHT22;7791;47.246;9.648;2023-08-17T16:18:36;21.30;99.90
15386;DHT22;7791;47.246;9.648;2023-08-17T16:21:19;21.20;99.90
15386;DHT22;7791;47.246;9.648;2023-08-17T16:24:15;21.00;99.90
15386;DHT22;7791;47.246;9.648;2023-08-17T16:27:00;20.70;99.90
15386;DHT22;7791;47.246;9.648;2023-08-17T16:32:25;20.50;99.90
15386;DHT22;7791;47.246;9.648;2023-08-17T16:38:22;20.40;99.90
15386;DHT22;7791;47.246;9.648;2023-08-17T16:44:06;20.20;99.90
15386;DHT22;7791;47.246;9.648;2023-08-17T16:46:43;20.20;99.90
15386;DHT22;7791;47.246;9.648;2023-08-17T16:52:11;20.00;99.90
15386;DHT22;7791;47.246;9.648;2023-08-17T16:54:50;19.90;99.90
15386;DHT22;7791;47.246;9.648;2023-08-17T17:00:42;19.90;99.90
15386;DHT22;7791;47.246;9.648;2023-08-17T17:03:14;20.00;99.90
15386;DHT22;7791;47.246;9.648;2023-08-17T17:06:05;20.00;99.90
15386;DHT22;7791;47.246;9.648;2023-08-17T17:08:42;20.00;99.90
15386;DHT22;7791;47.246;9.648;2023-08-17T17:11:11;19.90;99.90
15386;DHT22;7791;47.246;9.648;2023-08-17T17:14:04;20.00;99.90
15386;DHT22;7791;47.246;9.648;2023-08-17T17:16:47;19.90;99.90
15386;DHT22;7791;47.246;9.648;2023-08-17T17:19:28;20.00;99.90
15386;DHT22;7791;47.246;9.648;2023-08-17T17:22:04;19.90;99.90
15386;DHT22;7791;47.246;9.648;2023-08-17T17:24:55;20.00;99.90
15386;DHT22;7791;47.246;9.648;2023-08-17T17:27:47;20.00;99.90
15386;DHT22;7791;47.246;9.648;2023-08-17T17:30:32;20.00;99.90
15386;DHT22;7791;47.246;9.648;2023-08-17T17:33:21;20.00;99.90
15386;DHT22;7791;47.246;9.648;2023-08-17T17:36:06;20.10;99.90
15386;DHT22;7791;47.246;9.648;2023-08-17T17:38:52;20.10;99.90
15386;DHT22;7791;47.246;9.648;2023-08-17T17:41:38;20.10;99.90
15386;DHT22;7791;47.246;9.648;2023-08-17T17:44:08;20.10;99.90
15386;DHT22;7791;47.246;9.648;2023-08-17T17:46:40;20.20;99.90
15386;DHT22;7791;47.246;9.648;2023-08-17T17:49:30;20.10;99.90
15386;DHT22;7791;47.246;9.648;2023-08-17T17:52:09;20.20;99.90
15386;DHT22;7791;47.246;9.648;2023-08-17T17:54:41;20.20;99.90
15386;DHT22;7791;47.246;9.648;2023-08-17T17:57:13;20.40;99.90
15386;DHT22;7791;47.246;9.648;2023-08-17T17:59:57;20.40;99.90
15386;DHT22;7791;47.246;9.648;2023-08-17T18:02:36;20.30;99.90
15386;DHT22;7791;47.246;9.648;2023-08-17T18:05:12;20.30;99.90
15386;DHT22;7791;47.246;9.648;2023-08-17T18:07:43;20.30;99.90
15386;DHT22;7791;47.246;9.648;2023-08-17T18:10:26;20.40;99.90
15386;DHT22;7791;47.246;9.648;2023-08-17T18:13:05;20.40;99.90
15386;DHT22;7791;47.246;9.648;2023-08-17T18:15:50;20.20;99.90
15386;DHT22;7791;47.246;9.648;2023-08-17T18:18:24;20.20;99.90
15386;DHT22;7791;47.246;9.648;2023-08-17T18:24:19;20.10;99.90
15386;DHT22;7791;47.246;9.648;2023-08-17T18:27:24;20.00;99.90
15386;DHT22;7791;47.246;9.648;2023-08-17T18:30:14;19.90;99.90
15386;DHT22;7791;47.246;9.648;2023-08-17T18:32:52;19.80;99.90
15386;DHT22;7791;47.246;9.648;2023-08-17T18:38:17;19.60;99.90
15386;DHT22;7791;47.246;9.648;2023-08-17T18:44:14;19.60;99.90
15386;DHT22;7791;47.246;9.648;2023-08-17T18:46:47;19.50;99.90
15386;DHT22;7791;47.246;9.648;2023-08-17T18:49:27;19.50;99.90
15386;DHT22;7791;47.246;9.648;2023-08-17T18:52:23;19.50;99.90
15386;DHT22;7791;47.246;9.648;2023-08-17T18:55:06;19.60;99.90
15386;DHT22;7791;47.246;9.648;2023-08-17T18:58:06;19.60;99.90
15386;DHT22;7791;47.246;9.648;2023-08-17T19:00:42;19.70;99.90
15386;DHT22;7791;47.246;9.648;2023-08-17T19:03:23;19.70;99.90
15386;DHT22;7791;47.246;9.648;2023-08-17T19:06:02;19.60;99.90
15386;DHT22;7791;47.246;9.648;2023-08-17T19:08:35;19.70;99.90
15386;DHT22;7791;47.246;9.648;2023-08-17T19:11:11;19.90;99.90
15386;DHT22;7791;47.246;9.648;2023-08-17T19:13:54;19.90;99.90
15386;DHT22;7791;47.246;9.648;2023-08-17T19:16:40;19.90;99.90
15386;DHT22;7791;47.246;9.648;2023-08-17T19:19:23;19.90;99.90
15386;DHT22;7791;47.246;9.648;2023-08-17T19:22:05;19.90;99.90
15386;DHT22;7791;47.246;9.648;2023-08-17T19:24:49;19.90;99.90
15386;DHT22;7791;47.246;9.648;2023-08-17T19:30:10;20.10;99.90
15386;DHT22;7791;47.246;9.648;2023-08-17T19:35:36;20.10;99.90
15386;DHT22;7791;47.246;9.648;2023-08-17T19:41:17;19.90;99.90
15386;DHT22;7791;47.246;9.648;2023-08-17T19:43:46;19.90;99.90
15386;DHT22;7791;47.246;9.648;2023-08-17T19:46:39;20.00;99.90
15386;DHT22;7791;47.246;9.648;2023-08-17T19:49:44;20.00;99.90